Latest Weather Observations for Canberra

IDN60801

Issued at 12:22 am EDT Thursday 21 February 2019 (issued every 10 minutes, with the page automatically refreshed every 10 minutes)

About weather observations | Map of weather stations | Latest weather observations for NSW | Other Formats
Station Details ID: 070351 Name: CANBERRA AIRPORT Lat: -35.31 Lon: 149.20 Height: 577.05 m
Data from the previous 72 hours. | See also: Recent months at Canberra
Date/Time
EDT
Temp
°C
App
Temp
°C
Dew
Point
°C
Rel
Hum
%
Delta-T
°C
Wind Press
QNH
hPa
Press
MSL
hPa
Rain since
9am
mm
Dir  Spd
km/h
Gust
km/h
Spd
kts
Gust
kts
21/12:00am 18.2 17.7 13.7 75 2.6 SE 9 13 5 7 1016.3 1013.8 0.0
 
Date/Time
EDT
Temp
°C
App
Temp
°C
Dew
Point
°C
Rel
Hum
%
Delta-T
°C
Wind Press
QNH
hPa
Press
MSL
hPa
Rain since
9am
mm
Dir  Spd
km/h
Gust
km/h
Spd
kts
Gust
kts
20/11:30pm 18.3 17.4 13.6 74 2.7 ESE 11 19 6 10 1016.4 1013.9 0.0
20/11:00pm 18.5 17.6 13.8 74 2.8 SSE 11 17 6 9 1016.2 1013.7 0.0
20/10:30pm 18.8 16.5 14.1 74 2.8 ESE 19 26 10 14 1016.0 1013.6 0.0
20/10:00pm 19.0 16.6 14.5 75 2.7 ESE 20 30 11 16 1015.5 1013.0 0.0
20/09:30pm 19.0 14.7 14.5 75 2.7 ESE 30 43 16 23 1014.9 1012.4 0.0
20/09:18pm 19.5 16.8 14.7 74 2.9 ESE 22 35 12 19 1014.8 1012.3 0.0
20/09:00pm 19.7 16.7 14.7 73 3.0 ESE 24 37 13 20 1014.1 1011.6 0.0
20/08:30pm 20.8 16.3 14.9 69 3.6 E 32 41 17 22 1013.2 1010.7 0.0
20/08:00pm 22.7 18.0 14.3 59 5.1 ENE 32 41 17 22 1012.5 1009.9 0.0
20/07:43pm 24.2 21.5 12.8 49 6.7 NE 19 46 10 25 1012.0 1009.5 0.0
20/07:30pm 25.8 22.3 5.4 27 10.7 N 13 17 7 9 1011.5 1009.0 0.0
20/07:00pm 26.9 23.5 5.8 26 11.2 N 13 17 7 9 1011.0 1008.4 0.0
20/06:30pm 27.2 24.1 5.5 25 11.5 N 11 17 6 9 1010.8 1008.2 0.0
20/06:00pm 28.0 25.0 6.2 25 11.8 NNW 11 17 6 9 1010.5 1008.0 0.0
20/05:30pm 27.4 23.9 5.6 25 11.6 N 13 20 7 11 1010.5 1008.0 0.0
20/05:00pm 28.2 25.1 7.4 27 11.5 NW 13 20 7 11 1010.5 1008.0 0.0
20/04:30pm 27.2 24.7 4.9 24 11.7 N 7 15 4 8 1010.7 1008.1 0.0
20/04:00pm 27.0 24.6 6.9 28 10.9 NNW 9 17 5 9 1010.9 1008.3 0.0
20/03:30pm 27.0 24.5 8.0 30 10.5 NW 11 17 6 9 1011.4 1008.9 0.0
20/03:00pm 26.4 23.2 6.9 29 10.6 NNW 13 24 7 13 1011.7 1009.2 0.0
20/02:30pm 27.4 24.1 9.7 33 10.1 WNW 17 26 9 14 1012.1 1009.6 0.0
20/02:00pm 25.9 23.4 9.7 36 9.2 NW 13 22 7 12 1012.6 1010.0 0.0
20/01:30pm 23.9 21.6 11.6 46 7.1 NW 15 26 8 14 1012.8 1010.3 0.0
20/01:00pm 24.3 22.8 11.9 45 7.2 WNW 11 20 6 11 1013.2 1010.7 0.0
20/12:30pm 21.9 21.0 12.5 55 5.5 WNW 9 15 5 8 1013.8 1011.3 0.0
20/12:00pm 20.9 20.4 12.8 60 4.7 SW 7 13 4 7 1014.4 1011.9 0.0
20/11:30am 20.0 18.3 12.5 62 4.3 WSW 13 17 7 9 1014.8 1012.3 0.0
20/11:24am 19.6 18.3 12.4 63 4.1 SW 11 17 6 9 1014.8 1012.3 0.0
20/11:00am 19.5 18.6 12.5 64 4.0 WNW 9 17 5 9 1015.0 1012.5 0.0
20/10:57am 19.2 18.3 12.5 65 3.9 WNW 9 15 5 8 1015.0 1012.5 0.0
20/10:38am 18.7 17.8 12.5 67 3.6 NW 9 15 5 8 1015.0 1012.5 0.0
20/10:30am 18.7 17.8 12.7 68 3.5 NNW 9 13 5 7 1015.1 1012.6 0.0
20/10:00am 17.3 16.2 11.8 70 3.1 NNW 9 13 5 7 1015.1 1012.6 0.0
20/09:30am 17.6 16.9 11.9 69 3.2 N 7 13 4 7 1015.0 1012.5 0.0
20/09:10am 17.1 15.9 11.6 70 3.1 NNW 9 13 5 7 1015.0 1012.5 0.0
20/09:00am 16.7 15.4 11.2 70 3.0 NNW 9 15 5 8 1014.9 1012.4 0.0
20/08:30am 16.1 15.2 11.3 73 2.7 NNE 7 11 4 6 1014.7 1012.2 0.0
20/08:28am 16.0 14.7 11.4 74 2.6 NNE 9 11 5 6 1014.7 1012.2 0.0
20/08:00am 15.7 14.5 11.5 76 2.3 NNE 9 11 5 6 1014.6 1012.1 0.0
20/07:30am 15.4 14.1 11.4 77 2.2 N 9 13 5 7 1014.5 1012.0 0.0
20/07:00am 15.2 14.8 11.2 77 2.2 ENE 4 7 2 4 1014.1 1011.6 0.0
20/06:30am 15.1 13.8 11.1 77 2.2 ENE 9 9 5 5 1013.9 1011.4 0.0
20/06:10am 15.1 14.1 11.1 77 2.2 E 7 9 4 5 1013.8 1011.3 0.0
20/06:00am 15.1 14.7 11.1 77 2.2 ESE 4 9 2 5 1013.8 1011.3 0.0
20/05:30am 15.0 13.9 10.8 76 2.3 ESE 7 9 4 5 1013.8 1011.3 0.0
20/05:00am 15.1 13.7 10.9 76 2.3 ESE 9 11 5 6 1013.7 1011.2 0.0
20/04:30am 15.1 14.1 10.9 76 2.3 SE 7 9 4 5 1013.9 1011.4 0.0
20/04:00am 15.1 14.1 10.9 76 2.3 SE 7 9 4 5 1013.9 1011.4 0.0
20/03:30am 15.2 14.8 11.0 76 2.3 SE 4 9 2 5 1013.9 1011.4 0.0
20/03:08am 15.2 14.4 11.0 76 2.3 ENE 6 7 3 4 1014.1 1011.6 0.0
20/03:00am 15.2 14.2 11.0 76 2.3 ENE 7 11 4 6 1014.3 1011.7 0.0
20/02:40am 15.1 13.0 11.1 77 2.2 ESE 13 15 7 8 1014.1 1011.6 0.0
20/02:30am 15.1 13.8 11.1 77 2.2 E 9 13 5 7 1014.5 1012.0 0.0
20/02:00am 15.4 14.5 11.2 76 2.3 ESE 7 9 4 5 1014.9 1012.4 0.0
20/01:30am 15.2 13.9 11.2 77 2.2 E 9 13 5 7 1015.0 1012.5 0.0
20/01:08am 14.8 13.9 11.2 79 2.0 SE 7 11 4 6 1015.2 1012.7 0.0
20/01:04am 14.7 13.7 11.1 79 2.0 SSE 7 11 4 6 1015.2 1012.7 0.0
20/01:00am 14.7 13.3 10.9 78 2.1 SSE 9 13 5 7 1015.2 1012.7 0.0
20/12:30am 15.3 13.6 11.3 77 2.2 ESE 11 19 6 10 1015.3 1012.8 0.0
20/12:00am 15.4 14.2 11.6 78 2.1 E 9 13 5 7 1015.5 1013.0 0.0
 
Date/Time
EDT
Temp
°C
App
Temp
°C
Dew
Point
°C
Rel
Hum
%
Delta-T
°C
Wind Press
QNH
hPa
Press
MSL
hPa
Rain since
9am
mm
Dir  Spd
km/h
Gust
km/h
Spd
kts
Gust
kts
19/11:53pm 15.4 13.8 11.6 78 2.1 E 11 15 6 8 1015.5 1013.0 0.0
19/11:31pm 14.8 12.3 11.0 78 2.1 ESE 15 26 8 14 1015.4 1012.9 0.0
19/11:30pm 14.8 12.3 11.0 78 2.1 ESE 15 26 8 14 1015.4 1012.9 0.0
19/11:00pm 15.5 12.2 11.5 77 2.2 E 20 28 11 15 1015.4 1012.9 0.0
19/10:30pm 15.6 12.4 11.4 76 2.3 ESE 19 26 10 14 1015.2 1012.7 0.0
19/10:00pm 15.5 12.7 11.3 76 2.3 ESE 17 24 9 13 1015.0 1012.5 0.0
19/09:39pm 15.6 12.5 11.6 77 2.2 ESE 19 28 10 15 1014.6 1012.1 0.0
19/09:30pm 15.6 12.5 11.6 77 2.2 ESE 19 28 10 15 1014.4 1011.9 0.0
19/09:00pm 15.6 12.9 11.6 77 2.2 E 17 26 9 14 1013.8 1011.3 0.0
19/08:30pm 15.7 10.9 11.7 77 2.2 E 28 39 15 21 1012.8 1010.3 0.0
19/08:00pm 16.1 10.4 11.7 75 2.5 E 33 46 18 25 1012.1 1009.6 0.0
19/07:30pm 17.7 12.5 11.7 68 3.4 E 30 39 16 21 1011.4 1008.9 0.0
19/07:00pm 19.4 13.7 11.9 62 4.3 ENE 33 43 18 23 1010.0 1007.5 0.0
19/06:30pm 22.5 16.9 11.6 50 6.3 E 32 43 17 23 1009.3 1006.7 0.0
19/06:15pm 25.2 20.9 10.6 40 8.4 NE 24 41 13 22 1008.9 1006.3 0.0
19/06:00pm 30.6 25.3 -7.4 8 16.5 W 13 24 7 13 1008.2 1005.7 0.0
19/05:30pm 31.1 25.1 -7.0 8 16.7 WNW 17 28 9 15 1007.7 1005.1 0.0
19/05:00pm 31.0 24.2 -8.8 7 17.0 WNW 20 30 11 16 1007.5 1004.9 0.0
19/04:30pm 31.2 24.1 -8.6 7 17.0 W 22 33 12 18 1007.4 1004.8 0.0
19/04:00pm 31.4 23.5 -8.5 7 17.2 WNW 26 37 14 20 1007.2 1004.6 0.0
19/03:30pm 32.0 23.8 -8.1 7 17.4 WNW 28 37 15 20 1007.3 1004.7 0.0
19/03:00pm 32.1 24.4 -6.3 8 17.2 W 26 37 14 20 1007.5 1004.9 0.0
19/02:30pm 31.8 24.6 -4.9 9 16.8 WNW 24 39 13 21 1007.5 1004.9 0.0
19/02:00pm 31.9 25.5 -4.9 9 16.9 WNW 20 30 11 16 1007.7 1005.1 0.0
19/01:30pm 31.2 24.7 -2.7 11 16.0 W 22 33 12 18 1007.8 1005.2 0.0
19/01:00pm 30.3 24.3 0.8 15 14.7 W 22 33 12 18 1008.0 1005.4 0.0
19/12:30pm 29.2 25.2 10.3 31 11.0 NNW 22 41 12 22 1008.4 1005.9 0.0
19/12:00pm 28.4 25.1 11.5 35 10.0 NW 20 35 11 19 1008.8 1006.2 0.0
19/11:30am 27.0 25.1 11.9 39 8.9 WNW 13 20 7 11 1009.0 1006.4 0.0
19/11:00am 26.7 24.2 11.2 38 9.0 WNW 15 22 8 12 1009.1 1006.5 0.0
19/10:30am 25.2 22.9 13.1 47 7.2 NW 17 22 9 12 1009.1 1006.5 0.0
19/10:00am 24.9 23.3 13.8 50 6.7 NNW 15 20 8 11 1008.9 1006.3 0.0
19/09:30am 23.7 23.0 14.4 56 5.6 NNW 11 17 6 9 1008.9 1006.3 0.0
19/09:00am 22.0 22.5 15.1 65 4.2 W 6 9 3 5 1008.5 1006.0 0.0
19/08:30am 20.3 20.3 14.2 68 3.6 SSW 7 11 4 6 1008.4 1005.9 0.0
19/08:00am 18.1 19.5 14.4 79 2.2 CALM 0 0 0 0 1008.2 1005.7 0.0
19/07:30am 16.1 16.9 13.8 86 1.3 NNW 2 7 1 4 1008.1 1005.5 0.0
19/07:00am 15.3 14.7 13.5 89 1.0 E 9 11 5 6 1008.0 1005.4 0.0
19/06:30am 14.1 13.2 12.5 90 0.9 S 9 9 5 5 1007.9 1005.3 0.0
19/06:00am 14.5 15.3 12.5 88 1.1 CALM 0 0 0 0 1007.7 1005.1 0.0
19/05:30am 15.0 14.6 12.9 87 1.2 N 7 9 4 5 1007.5 1004.9 0.0
19/05:00am 15.7 15.7 13.7 88 1.2 N 6 9 3 5 1007.5 1004.9 0.0
19/04:30am 15.9 16.2 13.4 85 1.4 SSE 4 7 2 4 1007.5 1004.9 0.0
19/04:00am 15.5 16.4 12.8 84 1.5 CALM 0 0 0 0 1007.9 1005.3 0.0
19/03:30am 16.6 17.7 13.5 82 1.8 CALM 0 0 0 0 1007.9 1005.3 0.0
19/03:00am 16.6 17.1 12.8 78 2.2 NE 2 7 1 4 1007.9 1005.3 0.0
19/02:30am 16.1 15.7 12.3 78 2.1 ESE 6 7 3 4 1008.1 1005.5 0.0
19/02:00am 17.5 17.1 13.0 75 2.6 N 7 9 4 5 1008.3 1005.8 0.0
19/01:30am 19.0 18.6 13.0 68 3.5 NW 7 9 4 5 1008.6 1006.1 0.0
19/01:00am 20.2 19.0 13.9 67 3.7 NE 13 15 7 8 1008.8 1006.2 0.0
19/12:30am 20.3 19.4 13.7 66 3.9 ENE 11 17 6 9 1009.3 1006.7 0.0
19/12:00am 20.8 19.9 13.7 64 4.2 WNW 11 17 6 9 1009.7 1007.2 0.0
 
Date/Time
EDT
Temp
°C
App
Temp
°C
Dew
Point
°C
Rel
Hum
%
Delta-T
°C
Wind Press
QNH
hPa
Press
MSL
hPa
Rain since
9am
mm
Dir  Spd
km/h
Gust
km/h
Spd
kts
Gust
kts
18/11:30pm 20.2 18.4 13.4 65 4.0 NNW 15 17 8 9 1009.3 1006.7 0.0
18/11:00pm 20.8 20.5 13.3 62 4.4 N 7 11 4 6 1009.4 1006.8 0.0
18/10:30pm 21.2 19.7 13.1 60 4.8 N 13 15 7 8 1009.8 1007.3 0.0
18/10:00pm 22.4 21.2 12.9 55 5.6 N 11 15 6 8 1010.2 1007.7 0.0
18/09:30pm 22.9 21.6 13.7 56 5.5 NNE 13 15 7 8 1010.3 1007.8 0.0
18/09:00pm 22.5 22.1 14.1 59 5.0 NNE 9 11 5 6 1010.3 1007.8 0.0
18/08:30pm 22.5 20.3 14.9 62 4.6 NNE 20 26 11 14 1010.0 1007.5 0.0
18/08:00pm 23.0 22.2 15.1 61 4.8 E 13 13 7 7 1009.9 1007.4 0.0
18/07:30pm 23.8 24.1 14.5 56 5.6 SW 6 11 3 6 1009.6 1007.0 0.0
18/07:00pm 24.6 23.2 13.5 50 6.7 S 13 17 7 9 1009.4 1006.8 0.0
18/06:30pm 25.2 21.8 12.4 45 7.6 NNW 22 37 12 20 1008.0 1005.4 0.0
18/06:26pm 25.4 22.9 13.6 48 7.1 N 19 37 10 20 1008.2 1005.7 0.0
18/06:00pm 26.7 25.1 11.6 39 8.9 W 11 19 6 10 1008.2 1005.7 0.0
18/05:46pm 25.4 20.6 12.9 45 7.4 W 30 50 16 27 1008.4 1005.9 0.0
18/05:45pm 25.6 20.3 12.4 43 7.8 W 32 50 17 27 1008.8 1006.2 0.0
18/05:40pm 25.9 18.0 10.9 39 8.7 W 43 69 23 37 1008.8 1006.2 0.0
18/05:33pm 28.0 18.9 9.8 32 10.4 WNW 48 69 26 37 1008.6 1006.1 0.0
18/05:30pm 29.1 20.5 8.2 27 11.7 WNW 43 65 23 35 1008.4 1005.9 0.0
18/05:23pm 32.1 25.9 6.3 20 14.2 NW 28 54 15 29 1006.7 1004.2 0.0
18/05:22pm 32.0 26.4 7.0 21 13.9 NW 26 54 14 29 1006.6 1004.1 0.0
18/05:21pm 32.1 26.3 6.3 20 14.2 NW 26 54 14 29 1006.4 1003.8 0.0
18/05:00pm 32.8 25.5 5.4 18 15.0 NNW 33 48 18 26 1005.9 1003.3 0.0
18/04:38pm 33.8 26.1 5.4 17 15.6 NW 35 50 19 27 1005.8 1003.2 0.0
18/04:30pm 35.5 28.3 5.8 16 16.5 NW 33 57 18 31 1005.9 1003.3 0.0
18/04:04pm 34.5 28.1 5.0 16 16.1 NW 28 50 15 27 1006.3 1003.7 0.0
18/04:00pm 35.1 29.1 5.5 16 16.4 NW 26 41 14 22 1006.4 1003.8 0.0
18/03:32pm 35.6 28.6 5.9 16 16.6 NNW 32 56 17 30 1007.0 1004.4 0.0
18/03:30pm 34.9 27.9 6.2 17 16.0 NW 32 41 17 22 1007.1 1004.5 0.0
18/03:09pm 34.9 28.2 5.4 16 16.3 NW 30 48 16 26 1007.4 1004.8 0.0
18/03:00pm 35.2 28.3 6.5 17 16.2 NW 32 41 17 22 1007.6 1005.0 0.0
18/02:39pm 34.9 27.6 5.4 16 16.3 NW 33 52 18 28 1008.1 1005.5 0.0
18/02:30pm 34.4 27.0 5.0 16 16.1 NW 33 50 18 27 1008.2 1005.7 0.0
18/02:00pm 34.6 29.1 6.0 17 15.9 NW 24 37 13 20 1008.8 1006.2 0.0
18/01:41pm 33.6 27.4 6.0 18 15.3 NW 28 46 15 25 1009.2 1006.6 0.0
18/01:30pm 33.3 28.0 6.6 19 14.9 NW 24 39 13 21 1009.4 1006.8 0.0
18/01:00pm 32.2 25.8 7.1 21 14.1 NW 30 41 16 22 1010.1 1007.6 0.0
18/12:30pm 31.5 24.4 7.9 23 13.3 NNW 35 46 19 25 1010.5 1008.0 0.0
18/12:16pm 31.3 25.1 7.7 23 13.3 NNW 30 50 16 27 1010.9 1008.3 0.0
18/12:00pm 30.7 24.4 7.2 23 13.1 NNW 30 39 16 21 1011.2 1008.6 0.0
18/11:30am 28.1 23.2 6.8 26 11.6 WNW 22 32 12 17 1011.6 1009.1 0.0
18/11:00am 28.6 24.6 8.3 28 11.4 NW 19 28 10 15 1011.9 1009.4 0.0
18/10:30am 27.8 24.9 9.6 32 10.4 WNW 15 26 8 14 1011.9 1009.4 0.0
18/10:00am 25.2 24.2 11.0 41 8.2 NW 7 11 4 6 1012.1 1009.6 0.0
18/09:30am 23.4 23.8 11.1 46 7.0 CALM 0 0 0 0 1012.5 1009.9 0.0
18/09:00am 20.7 20.8 11.6 56 5.2 S 2 7 1 4 1012.7 1010.1 0.0
18/08:30am 18.6 19.0 11.2 62 4.1 CALM 0 0 0 0 1012.7 1010.1 0.0
18/08:00am 16.8 17.2 11.1 69 3.2 CALM 0 0 0 0 1012.8 1010.3 0.0
18/07:30am 15.3 15.7 11.3 77 2.2 CALM 0 0 0 0 1012.7 1010.1 0.0
18/07:00am 13.7 13.0 10.1 79 1.9 E 4 7 2 4 1012.2 1009.7 0.0
18/06:30am 14.0 13.6 9.8 76 2.2 N 2 6 1 3 1012.0 1009.5 0.0
18/06:00am 14.6 12.9 10.0 74 2.5 SE 9 13 5 7 1011.6 1009.1 0.0
18/05:30am 15.0 13.1 10.4 74 2.5 SE 11 13 6 7 1011.5 1009.0 0.0
18/05:00am 14.9 13.3 10.1 73 2.6 SE 9 11 5 6 1011.4 1008.9 0.0
18/04:30am 15.0 15.1 10.0 72 2.7 CALM 0 0 0 0 1011.3 1008.8 0.0
18/04:00am 16.6 16.6 9.8 64 3.7 CALM 0 0 0 0 1011.6 1009.1 0.0
18/03:30am 16.4 15.4 10.3 67 3.3 SSW 6 7 3 4 1011.7 1009.2 0.0
18/03:00am 16.4 15.5 9.1 62 3.9 SSW 4 7 2 4 1011.8 1009.3 0.0
18/02:30am 17.1 17.3 10.5 65 3.6 CALM 0 0 0 0 1011.8 1009.3 0.0
18/02:00am 16.1 14.2 9.1 63 3.7 SSW 9 13 5 7 1012.0 1009.5 0.0
18/01:30am 16.4 16.3 9.3 63 3.8 CALM 0 0 0 0 1012.1 1009.6 0.0
18/01:00am 16.9 16.5 8.1 56 4.6 CALM 0 0 0 0 1012.3 1009.8 0.0
18/12:30am 17.7 16.0 7.7 52 5.2 SE 6 9 3 5 1012.6 1010.0 0.0

Other formats

Comma delimited format used in spreadsheet applications
http://www.bom.gov.au/fwo/IDN60801/IDN60801.94926.axf

JavaScript Object Notation format (JSON) in row-major order
http://www.bom.gov.au/fwo/IDN60801/IDN60801.94926.json

Data quality

Most of these data are generated automatically and are frequently updated. Quality checks on data are not normally performed. It is possible for incorrect values to appear. Refer to information at About Latest Weather Observations and please check the disclaimer before using these data.